^^
Saratoga-Weather Station Historical Data
Daily Summary for January 31, 2020 Units:  Both    English   Metric
Daily Weekly Monthly Yearly Custom
  High: Low: Average:
Temperature: 73.4 °F /  23 °C 48.7 °F /  9.3 °C 61.9 °F /  16.6 °C
Dew Point: 46.4 °F /  8 °C 40.1 °F /  4.5 °C 43.5 °F /  6.4 °C
Humidity: 75% 35% 52%
Wind Speed: 12.1mph /  19.5km/h - 2.2mph /  3.6km/h
Wind Gust: 13mph /  20.9km/h - -
Wind- - ESE
Pressure: 30.1 in /  1019.6 hPa 30.1 in /  1017.6 hPa -
Precipitation: 0 in /  0.0 mm    
Historical Graphs
 
 
Tabular Data for January 31, 2020
Time Temperature Dew Point Pressure Wind Wind Speed Wind Gust Humidity Rainfall Rate (Hourly) solar
00:04 56.7 °F /  13.7 °C 40.3 °F /  4.6 °C 30.1in /  1019.3hPa Calm   2mph /  3.2km/h 54% 0in /  0.0mm 0 W/m2
00:09 56.7 °F /  13.7 °C 40.6 °F /  4.8 °C 30.1in /  1019.3hPa Calm   1mph /  1.6km/h 55% 0in /  0.0mm 0 W/m2
00:14 56.5 °F /  13.6 °C 41 °F /  5 °C 30.1in /  1019.3hPa Calm   1mph /  1.6km/h 56% 0in /  0.0mm 0 W/m2
00:19 56.5 °F /  13.6 °C 41 °F /  5 °C 30.1in /  1019.3hPa SSE 0.9mph /  1.4km/h 1mph /  1.6km/h 56% 0in /  0.0mm 0 W/m2
00:25 56.3 °F /  13.5 °C 40.3 °F /  4.6 °C 30.1in /  1019.3hPa Calm   1mph /  1.6km/h 55% 0in /  0.0mm 0 W/m2
00:30 56.1 °F /  13.4 °C 40.1 °F /  4.5 °C 30.1in /  1019.3hPa Calm   1mph /  1.6km/h 55% 0in /  0.0mm 0 W/m2
00:35 56.1 °F /  13.4 °C 40.6 °F /  4.8 °C 30.1in /  1019.6hPa Calm   1mph /  1.6km/h 56% 0in /  0.0mm 0 W/m2
00:40 55.9 °F /  13.3 °C 40.5 °F /  4.7 °C 30.1in /  1019.6hPa SE 0.9mph /  1.4km/h 1mph /  1.6km/h 56% 0in /  0.0mm 0 W/m2
00:45 55.9 °F /  13.3 °C 41 °F /  5 °C 30.1in /  1019.6hPa Calm     57% 0in /  0.0mm 0 W/m2
00:50 55.8 °F /  13.2 °C 41.2 °F /  5.1 °C 30.1in /  1019.6hPa Calm   1mph /  1.6km/h 58% 0in /  0.0mm 0 W/m2
00:55 55.4 °F /  13 °C 40.8 °F /  4.9 °C 30.1in /  1019.3hPa ESE 0.9mph /  1.4km/h 1mph /  1.6km/h 58% 0in /  0.0mm 0 W/m2
01:00 55.2 °F /  12.9 °C 41.2 °F /  5.1 °C 30.1in /  1019.3hPa Calm   1mph /  1.6km/h 59% 0in /  0.0mm 0 W/m2
01:05 54.9 °F /  12.7 °C 40.8 °F /  4.9 °C 30.1in /  1019.3hPa Calm     59% 0in /  0.0mm 0 W/m2
01:10 54.7 °F /  12.6 °C 40.6 °F /  4.8 °C 30.1in /  1019.3hPa Calm     59% 0in /  0.0mm 0 W/m2
01:15 54.3 °F /  12.4 °C 40.8 °F /  4.9 °C 30.1in /  1019.3hPa Calm     60% 0in /  0.0mm 0 W/m2
01:20 54.1 °F /  12.3 °C 41 °F /  5 °C 30.1in /  1019.3hPa Calm     61% 0in /  0.0mm 0 W/m2
01:25 53.8 °F /  12.1 °C 40.6 °F /  4.8 °C 30.1in /  1019.3hPa ESE 0.9mph /  1.4km/h 1mph /  1.6km/h 61% 0in /  0.0mm 0 W/m2
01:30 53.6 °F /  12 °C 40.8 °F /  4.9 °C 30.1in /  1019.3hPa Calm   1mph /  1.6km/h 62% 0in /  0.0mm 0 W/m2
01:35 53.2 °F /  11.8 °C 41 °F /  5 °C 30.1in /  1019.3hPa Calm     63% 0in /  0.0mm 0 W/m2
01:40 53.1 °F /  11.7 °C 40.8 °F /  4.9 °C 30.1in /  1019.3hPa ESE 0.9mph /  1.4km/h 1mph /  1.6km/h 63% 0in /  0.0mm 0 W/m2
01:45 52.9 °F /  11.6 °C 41 °F /  5 °C 30.1in /  1019.3hPa Calm   2mph /  3.2km/h 64% 0in /  0.0mm 0 W/m2
01:50 52.7 °F /  11.5 °C 40.8 °F /  4.9 °C 30.1in /  1019.3hPa Calm   1mph /  1.6km/h 64% 0in /  0.0mm 0 W/m2
01:55 52.5 °F /  11.4 °C 40.6 °F /  4.8 °C 30.1in /  1019.3hPa Calm     64% 0in /  0.0mm 0 W/m2
02:00 52.5 °F /  11.4 °C 40.6 °F /  4.8 °C 30.1in /  1019.3hPa Calm   1mph /  1.6km/h 64% 0in /  0.0mm 0 W/m2
02:05 52.3 °F /  11.3 °C 41 °F /  5 °C 30.1in /  1019.6hPa Calm     65% 0in /  0.0mm 0 W/m2
02:10 52.3 °F /  11.3 °C 41 °F /  5 °C 30.1in /  1019.3hPa Calm   2mph /  3.2km/h 65% 0in /  0.0mm 0 W/m2
02:15 52.2 °F /  11.2 °C 40.8 °F /  4.9 °C 30.1in /  1019.3hPa Calm     65% 0in /  0.0mm 0 W/m2
02:20 52.2 °F /  11.2 °C 40.8 °F /  4.9 °C 30.1in /  1019.3hPa Calm     65% 0in /  0.0mm 0 W/m2
02:25 52.2 °F /  11.2 °C 40.8 °F /  4.9 °C 30.1in /  1019.3hPa Calm   1mph /  1.6km/h 65% 0in /  0.0mm 0 W/m2
02:30 52 °F /  11.1 °C 41 °F /  5 °C 30.1in /  1019.3hPa Calm   1mph /  1.6km/h 66% 0in /  0.0mm 0 W/m2
02:35 51.6 °F /  10.9 °C 40.6 °F /  4.8 °C 30.1in /  1019.3hPa Calm   1mph /  1.6km/h 66% 0in /  0.0mm 0 W/m2
02:40 51.6 °F /  10.9 °C 41 °F /  5 °C 30.1in /  1019.3hPa Calm     67% 0in /  0.0mm 0 W/m2
02:45 51.4 °F /  10.8 °C 40.8 °F /  4.9 °C 30.1in /  1019.3hPa Calm     67% 0in /  0.0mm 0 W/m2
02:50 51.3 °F /  10.7 °C 40.6 °F /  4.8 °C 30.1in /  1019.3hPa Calm     67% 0in /  0.0mm 0 W/m2
02:56 51.3 °F /  10.7 °C 41 °F /  5 °C 30.1in /  1019.3hPa Calm     68% 0in /  0.0mm 0 W/m2
03:01 51.1 °F /  10.6 °C 40.8 °F /  4.9 °C 30.1in /  1019.3hPa Calm     68% 0in /  0.0mm 0 W/m2
03:06 51.1 °F /  10.6 °C 40.8 °F /  4.9 °C 30.1in /  1019.3hPa SE 0.9mph /  1.4km/h 2mph /  3.2km/h 68% 0in /  0.0mm 0 W/m2
03:11 51.1 °F /  10.6 °C 41.2 °F /  5.1 °C 30.1in /  1019.3hPa Calm     69% 0in /  0.0mm 0 W/m2
03:16 51.1 °F /  10.6 °C 40.8 °F /  4.9 °C 30.1in /  1019.3hPa Calm   1mph /  1.6km/h 68% 0in /  0.0mm 0 W/m2
03:21 51.1 °F /  10.6 °C 40.8 °F /  4.9 °C 30.1in /  1019.3hPa Calm   1mph /  1.6km/h 68% 0in /  0.0mm 0 W/m2
03:26 51.1 °F /  10.6 °C 40.8 °F /  4.9 °C 30.1in /  1019.0hPa Calm   1mph /  1.6km/h 68% 0in /  0.0mm 0 W/m2
03:31 51.3 °F /  10.7 °C 40.6 °F /  4.8 °C 30.1in /  1019.0hPa Calm   2mph /  3.2km/h 67% 0in /  0.0mm 0 W/m2
03:36 51.3 °F /  10.7 °C 40.6 °F /  4.8 °C 30.1in /  1019.0hPa SE 0.9mph /  1.4km/h 2mph /  3.2km/h 67% 0in /  0.0mm 0 W/m2
03:41 51.4 °F /  10.8 °C 40.8 °F /  4.9 °C 30.1in /  1019.0hPa Calm   1mph /  1.6km/h 67% 0in /  0.0mm 0 W/m2
03:46 51.4 °F /  10.8 °C 40.8 °F /  4.9 °C 30.1in /  1019.0hPa Calm   1mph /  1.6km/h 67% 0in /  0.0mm 0 W/m2
03:51 51.3 °F /  10.7 °C 40.6 °F /  4.8 °C 30.1in /  1019.0hPa Calm     67% 0in /  0.0mm 0 W/m2
03:56 51.1 °F /  10.6 °C 41.2 °F /  5.1 °C 30.1in /  1019.0hPa Calm   2mph /  3.2km/h 69% 0in /  0.0mm 0 W/m2
04:01 50.9 °F /  10.5 °C 40.6 °F /  4.8 °C 30.1in /  1019.0hPa Calm     68% 0in /  0.0mm 0 W/m2
04:07 50.7 °F /  10.4 °C 40.5 °F /  4.7 °C 30.1in /  1019.0hPa Calm     68% 0in /  0.0mm 0 W/m2
04:12 50.5 °F /  10.3 °C 40.5 °F /  4.7 °C 30.1in /  1019.0hPa Calm     68% 0in /  0.0mm 0 W/m2
04:17 50.5 °F /  10.3 °C 40.5 °F /  4.7 °C 30.1in /  1019.0hPa SE 0.9mph /  1.4km/h 2mph /  3.2km/h 68% 0in /  0.0mm 0 W/m2
04:22 50.5 °F /  10.3 °C 40.8 °F /  4.9 °C 30.1in /  1019.0hPa SE 0.9mph /  1.4km/h 1mph /  1.6km/h 69% 0in /  0.0mm 0 W/m2
04:27 50.4 °F /  10.2 °C 40.6 °F /  4.8 °C 30.1in /  1019.0hPa SE 0.9mph /  1.4km/h 2mph /  3.2km/h 69% 0in /  0.0mm 0 W/m2
04:32 50.4 °F /  10.2 °C 40.6 °F /  4.8 °C 30.1in /  1019.0hPa Calm   1mph /  1.6km/h 69% 0in /  0.0mm 0 W/m2
04:37 50.2 °F /  10.1 °C 40.5 °F /  4.7 °C 30.1in /  1019.0hPa Calm   1mph /  1.6km/h 69% 0in /  0.0mm 0 W/m2
04:42 50.2 °F /  10.1 °C 40.5 °F /  4.7 °C 30.1in /  1019.0hPa Calm   2mph /  3.2km/h 69% 0in /  0.0mm 0 W/m2
04:47 50.2 °F /  10.1 °C 40.8 °F /  4.9 °C 30.1in /  1019.0hPa Calm   1mph /  1.6km/h 70% 0in /  0.0mm 0 W/m2
04:52 50.2 °F /  10.1 °C 40.8 °F /  4.9 °C 30.1in /  1019.0hPa Calm   2mph /  3.2km/h 70% 0in /  0.0mm 0 W/m2
04:57 50.2 °F /  10.1 °C 40.8 °F /  4.9 °C 30.1in /  1019.0hPa Calm     70% 0in /  0.0mm 0 W/m2
05:02 50 °F /  10 °C 41 °F /  5 °C 30.1in /  1019.0hPa Calm     71% 0in /  0.0mm 0 W/m2
05:07 49.8 °F /  9.9 °C 40.8 °F /  4.9 °C 30.1in /  1019.0hPa SSW 0.9mph /  1.4km/h 2mph /  3.2km/h 71% 0in /  0.0mm 0 W/m2
05:12 49.6 °F /  9.8 °C 40.6 °F /  4.8 °C 30.1in /  1019.0hPa SSW 0.9mph /  1.4km/h 1mph /  1.6km/h 71% 0in /  0.0mm 0 W/m2
05:17 49.6 °F /  9.8 °C 40.6 °F /  4.8 °C 30.1in /  1019.0hPa SSW 2mph /  3.2km/h 2mph /  3.2km/h 71% 0in /  0.0mm 0 W/m2
05:22 49.5 °F /  9.7 °C 40.8 °F /  4.9 °C 30.1in /  1019.0hPa Calm   1mph /  1.6km/h 72% 0in /  0.0mm 0 W/m2
05:27 49.5 °F /  9.7 °C 40.8 °F /  4.9 °C 30.1in /  1019.0hPa Calm     72% 0in /  0.0mm 0 W/m2
05:32 49.5 °F /  9.7 °C 40.8 °F /  4.9 °C 30.1in /  1019.0hPa Calm   1mph /  1.6km/h 72% 0in /  0.0mm 0 W/m2
05:37 49.3 °F /  9.6 °C 40.6 °F /  4.8 °C 30.1in /  1019.0hPa SSW 2mph /  3.2km/h 2mph /  3.2km/h 72% 0in /  0.0mm 0 W/m2
05:42 49.3 °F /  9.6 °C 41 °F /  5 °C 30.1in /  1019.0hPa SSW 0.9mph /  1.4km/h 2mph /  3.2km/h 73% 0in /  0.0mm 5 W/m2
05:47 48.9 °F /  9.4 °C 40.6 °F /  4.8 °C 30.1in /  1019.3hPa SSW 0.9mph /  1.4km/h 1mph /  1.6km/h 73% 0in /  0.0mm 7 W/m2
05:52 48.9 °F /  9.4 °C 40.6 °F /  4.8 °C 30.1in /  1019.3hPa SSW 0.9mph /  1.4km/h 1mph /  1.6km/h 73% 0in /  0.0mm 9 W/m2
05:57 48.7 °F /  9.3 °C 40.8 °F /  4.9 °C 30.1in /  1019.3hPa SSW 0.9mph /  1.4km/h 2mph /  3.2km/h 74% 0in /  0.0mm 12 W/m2
06:02 48.7 °F /  9.3 °C 40.8 °F /  4.9 °C 30.1in /  1019.3hPa Calm     74% 0in /  0.0mm 14 W/m2
06:07 48.7 °F /  9.3 °C 41.2 °F /  5.1 °C 30.1in /  1019.3hPa SW 2mph /  3.2km/h 2mph /  3.2km/h 75% 0in /  0.0mm 16 W/m2
06:12 48.7 °F /  9.3 °C 41.2 °F /  5.1 °C 30.1in /  1019.3hPa Calm   2mph /  3.2km/h 75% 0in /  0.0mm 18 W/m2
06:17 48.7 °F /  9.3 °C 41.2 °F /  5.1 °C 30.1in /  1019.3hPa SW 0.9mph /  1.4km/h 1mph /  1.6km/h 75% 0in /  0.0mm 19 W/m2
06:23 49.1 °F /  9.5 °C 41.5 °F /  5.3 °C 30.1in /  1019.3hPa SW 0.9mph /  1.4km/h 1mph /  1.6km/h 75% 0in /  0.0mm 21 W/m2
06:28 49.5 °F /  9.7 °C 41.9 °F /  5.5 °C 30.1in /  1019.3hPa SW 0.9mph /  1.4km/h 1mph /  1.6km/h 75% 0in /  0.0mm 23 W/m2
06:33 49.8 °F /  9.9 °C 41.5 °F /  5.3 °C 30.1in /  1019.3hPa WSW 2mph /  3.2km/h 3mph /  4.8km/h 73% 0in /  0.0mm 25 W/m2
06:38 50.5 °F /  10.3 °C 41.5 °F /  5.3 °C 30.1in /  1019.3hPa WSW 0.9mph /  1.4km/h 3mph /  4.8km/h 71% 0in /  0.0mm 26 W/m2
06:43 51.1 °F /  10.6 °C 41.7 °F /  5.4 °C 30.1in /  1019.6hPa NW 2mph /  3.2km/h 2mph /  3.2km/h 70% 0in /  0.0mm 28 W/m2
06:48 51.4 °F /  10.8 °C 41.5 °F /  5.3 °C 30.1in /  1019.3hPa Calm   1mph /  1.6km/h 69% 0in /  0.0mm 28 W/m2
06:53 51.6 °F /  10.9 °C 41.4 °F /  5.2 °C 30.1in /  1019.3hPa WNW 0.9mph /  1.4km/h 2mph /  3.2km/h 68% 0in /  0.0mm 30 W/m2
06:58 51.8 °F /  11 °C 41.2 °F /  5.1 °C 30.1in /  1019.3hPa West 2.9mph /  4.7km/h 3mph /  4.8km/h 67% 0in /  0.0mm 32 W/m2
07:03 52.2 °F /  11.2 °C 41.5 °F /  5.3 °C 30.1in /  1019.3hPa NW 2mph /  3.2km/h 2mph /  3.2km/h 67% 0in /  0.0mm 32 W/m2
07:08 52.3 °F /  11.3 °C 41.4 °F /  5.2 °C 30.1in /  1019.3hPa Calm   2mph /  3.2km/h 66% 0in /  0.0mm 33 W/m2
07:14 52.3 °F /  11.3 °C 41.4 °F /  5.2 °C 30.1in /  1019.3hPa WNW 0.9mph /  1.4km/h 2mph /  3.2km/h 66% 0in /  0.0mm 33 W/m2
07:19 52.5 °F /  11.4 °C 41.5 °F /  5.3 °C 30.1in /  1019.3hPa WNW 2.9mph /  4.7km/h 3mph /  4.8km/h 66% 0in /  0.0mm 35 W/m2
07:24 52.9 °F /  11.6 °C 41.9 °F /  5.5 °C 30.1in /  1019.3hPa NW 2mph /  3.2km/h 2mph /  3.2km/h 66% 0in /  0.0mm 37 W/m2
07:29 53.1 °F /  11.7 °C 41.5 °F /  5.3 °C 30.1in /  1019.3hPa Calm   2mph /  3.2km/h 65% 0in /  0.0mm 37 W/m2
07:34 53.2 °F /  11.8 °C 41.7 °F /  5.4 °C 30.1in /  1019.3hPa NNE 2mph /  3.2km/h 2mph /  3.2km/h 65% 0in /  0.0mm 39 W/m2
07:39 53.4 °F /  11.9 °C 41.9 °F /  5.5 °C 30.1in /  1019.3hPa Calm   2mph /  3.2km/h 65% 0in /  0.0mm 76 W/m2
07:44 53.8 °F /  12.1 °C 42.6 °F /  5.9 °C 30.1in /  1019.3hPa NW 0.9mph /  1.4km/h 3mph /  4.8km/h 66% 0in /  0.0mm 214 W/m2
07:49 54.3 °F /  12.4 °C 42.8 °F /  6 °C 30.1in /  1019.3hPa Calm   2mph /  3.2km/h 65% 0in /  0.0mm 244 W/m2
07:54 55 °F /  12.8 °C 43.2 °F /  6.2 °C 30.1in /  1019.3hPa NW 2mph /  3.2km/h 3mph /  4.8km/h 64% 0in /  0.0mm 255 W/m2
07:59 55.8 °F /  13.2 °C 43.3 °F /  6.3 °C 30.1in /  1019.3hPa NNE 0.9mph /  1.4km/h 3mph /  4.8km/h 63% 0in /  0.0mm 272 W/m2
08:04 56.5 °F /  13.6 °C 43.2 °F /  6.2 °C 30.1in /  1019.3hPa Calm   1mph /  1.6km/h 61% 0in /  0.0mm 287 W/m2
08:09 56.8 °F /  13.8 °C 43.5 °F /  6.4 °C 30.1in /  1019.6hPa East 2mph /  3.2km/h 5mph /  8km/h 61% 0in /  0.0mm 302 W/m2
08:14 57.4 °F /  14.1 °C 43.7 °F /  6.5 °C 30.1in /  1019.3hPa ENE 2mph /  3.2km/h 2mph /  3.2km/h 60% 0in /  0.0mm 315 W/m2
08:19 58.1 °F /  14.5 °C 43 °F /  6.1 °C 30.1in /  1019.3hPa SE 2mph /  3.2km/h 8mph /  12.9km/h 57% 0in /  0.0mm 329 W/m2
08:24 58.5 °F /  14.7 °C 43.7 °F /  6.5 °C 30.1in /  1019.3hPa East 2.9mph /  4.7km/h 5mph /  8km/h 58% 0in /  0.0mm 345 W/m2
08:29 59.2 °F /  15.1 °C 43.9 °F /  6.6 °C 30.1in /  1019.3hPa East 0.9mph /  1.4km/h 7mph /  11.3km/h 57% 0in /  0.0mm 359 W/m2
08:34 59.5 °F /  15.3 °C 44.2 °F /  6.8 °C 30.1in /  1019.6hPa ENE 2mph /  3.2km/h 5mph /  8km/h 57% 0in /  0.0mm 371 W/m2
08:39 59.5 °F /  15.3 °C 43.9 °F /  6.6 °C 30.1in /  1019.3hPa East 2.9mph /  4.7km/h 5mph /  8km/h 56% 0in /  0.0mm 383 W/m2
08:44 59.7 °F /  15.4 °C 43.5 °F /  6.4 °C 30.1in /  1019.3hPa NNE 4mph /  6.4km/h 7mph /  11.3km/h 55% 0in /  0.0mm 399 W/m2
08:49 59.7 °F /  15.4 °C 43.5 °F /  6.4 °C 30.1in /  1019.3hPa NE 4mph /  6.4km/h 9mph /  14.5km/h 55% 0in /  0.0mm 413 W/m2
08:54 60.1 °F /  15.6 °C 43.9 °F /  6.6 °C 30.1in /  1019.6hPa East 2.9mph /  4.7km/h 7mph /  11.3km/h 55% 0in /  0.0mm 427 W/m2
08:59 60.4 °F /  15.8 °C 44.2 °F /  6.8 °C 30.1in /  1019.6hPa NNE 0.9mph /  1.4km/h 9mph /  14.5km/h 55% 0in /  0.0mm 438 W/m2
09:04 60.8 °F /  16 °C 44.1 °F /  6.7 °C 30.1in /  1019.6hPa East 6mph /  9.7km/h 6mph /  9.7km/h 54% 0in /  0.0mm 454 W/m2
09:09 60.8 °F /  16 °C 43.5 °F /  6.4 °C 30.1in /  1019.6hPa East 4mph /  6.4km/h 11mph /  17.7km/h 53% 0in /  0.0mm 468 W/m2
09:14 61 °F /  16.1 °C 44.2 °F /  6.8 °C 30.1in /  1019.6hPa SSE 6mph /  9.7km/h 8mph /  12.9km/h 54% 0in /  0.0mm 480 W/m2
09:19 61.3 °F /  16.3 °C 44.1 °F /  6.7 °C 30.1in /  1019.6hPa ENE 4mph /  6.4km/h 11mph /  17.7km/h 53% 0in /  0.0mm 492 W/m2
09:24 61.7 °F /  16.5 °C 45 °F /  7.2 °C 30.1in /  1019.3hPa NE 4mph /  6.4km/h 7mph /  11.3km/h 54% 0in /  0.0mm 506 W/m2
09:29 62.1 °F /  16.7 °C 44.8 °F /  7.1 °C 30.1in /  1019.3hPa North 0.9mph /  1.4km/h 4mph /  6.4km/h 53% 0in /  0.0mm 517 W/m2
09:34 62.6 °F /  17 °C 44.8 °F /  7.1 °C 30.1in /  1019.3hPa NNW 0.9mph /  1.4km/h 9mph /  14.5km/h 52% 0in /  0.0mm 531 W/m2
09:39 62.8 °F /  17.1 °C 45 °F /  7.2 °C 30.1in /  1019.3hPa NNE 2.9mph /  4.7km/h 4mph /  6.4km/h 52% 0in /  0.0mm 545 W/m2
09:44 63.1 °F /  17.3 °C 44.8 °F /  7.1 °C 30.1in /  1019.3hPa SE 0.9mph /  1.4km/h 10mph /  16.1km/h 51% 0in /  0.0mm 559 W/m2
09:49 63.3 °F /  17.4 °C 45.9 °F /  7.7 °C 30.1in /  1019.3hPa East 2mph /  3.2km/h 2mph /  3.2km/h 53% 0in /  0.0mm 570 W/m2
09:54 63.5 °F /  17.5 °C 45 °F /  7.2 °C 30.1in /  1019.3hPa ESE 6mph /  9.7km/h 7mph /  11.3km/h 51% 0in /  0.0mm 584 W/m2
09:59 63.7 °F /  17.6 °C 44.2 °F /  6.8 °C 30.1in /  1019.3hPa ESE 6mph /  9.7km/h 9mph /  14.5km/h 49% 0in /  0.0mm 564 W/m2
10:04 63.9 °F /  17.7 °C 44.2 °F /  6.8 °C 30.1in /  1019.3hPa ENE 2.9mph /  4.7km/h 3mph /  4.8km/h 49% 0in /  0.0mm 54 W/m2
10:09 64.2 °F /  17.9 °C 45.7 °F /  7.6 °C 30.1in /  1019.3hPa ESE 2.9mph /  4.7km/h 9mph /  14.5km/h 51% 0in /  0.0mm 88 W/m2
10:14 64.4 °F /  18 °C 44.2 °F /  6.8 °C 30.1in /  1019.3hPa NNE 2.9mph /  4.7km/h 7mph /  11.3km/h 48% 0in /  0.0mm 629 W/m2
10:19 64.9 °F /  18.3 °C 45.3 °F /  7.4 °C 30.1in /  1019.3hPa NE 2.9mph /  4.7km/h 7mph /  11.3km/h 49% 0in /  0.0mm 642 W/m2
10:24 65.3 °F /  18.5 °C 44.6 °F /  7 °C 30.1in /  1019.3hPa NE 6mph /  9.7km/h 11mph /  17.7km/h 47% 0in /  0.0mm 657 W/m2
10:29 65.1 °F /  18.4 °C 43.9 °F /  6.6 °C 30.1in /  1019.3hPa ENE 2.9mph /  4.7km/h 8mph /  12.9km/h 46% 0in /  0.0mm 671 W/m2
10:34 65.1 °F /  18.4 °C 43.9 °F /  6.6 °C 30.1in /  1019.3hPa East 6.9mph /  11.1km/h 13mph /  20.9km/h 46% 0in /  0.0mm 606 W/m2
10:39 65.1 °F /  18.4 °C 43.9 °F /  6.6 °C 30.1in /  1019.3hPa SSW 2mph /  3.2km/h 3mph /  4.8km/h 46% 0in /  0.0mm 705 W/m2
10:44 65.5 °F /  18.6 °C 43 °F /  6.1 °C 30.1in /  1019.3hPa East 6.9mph /  11.1km/h 13mph /  20.9km/h 44% 0in /  0.0mm 724 W/m2
10:49 65.7 °F /  18.7 °C 43.2 °F /  6.2 °C 30.1in /  1019.3hPa East 6.9mph /  11.1km/h 10mph /  16.1km/h 44% 0in /  0.0mm 740 W/m2
10:54 66 °F /  18.9 °C 44.1 °F /  6.7 °C 30.1in /  1019.0hPa NE 2.9mph /  4.7km/h 13mph /  20.9km/h 45% 0in /  0.0mm 758 W/m2
10:59 66.6 °F /  19.2 °C 44.6 °F /  7 °C 30.1in /  1019.0hPa NE 4mph /  6.4km/h 6mph /  9.7km/h 45% 0in /  0.0mm 759 W/m2
11:04 66.7 °F /  19.3 °C 45.3 °F /  7.4 °C 30.1in /  1019.0hPa NE 2.9mph /  4.7km/h 13mph /  20.9km/h 46% 0in /  0.0mm 842 W/m2
11:09 66.4 °F /  19.1 °C 44.4 °F /  6.9 °C 30.1in /  1019.3hPa ENE 8.1mph /  13km/h 11mph /  17.7km/h 45% 0in /  0.0mm 842 W/m2
11:14 65.5 °F /  18.6 °C 44.2 °F /  6.8 °C 30.1in /  1019.3hPa East 2mph /  3.2km/h 3mph /  4.8km/h 46% 0in /  0.0mm 153 W/m2
11:20 64.8 °F /  18.2 °C 44.6 °F /  7 °C 30.1in /  1019.3hPa NE 0.9mph /  1.4km/h 5mph /  8km/h 48% 0in /  0.0mm 227 W/m2
11:25 64.9 °F /  18.3 °C 43.7 °F /  6.5 °C 30.1in /  1019.0hPa ESE 0.9mph /  1.4km/h 3mph /  4.8km/h 46% 0in /  0.0mm 229 W/m2
11:30 64.9 °F /  18.3 °C 45.3 °F /  7.4 °C 30.1in /  1019.3hPa ENE 4mph /  6.4km/h 6mph /  9.7km/h 49% 0in /  0.0mm 253 W/m2
11:35 64.8 °F /  18.2 °C 44.1 °F /  6.7 °C 30.1in /  1019.0hPa SE 4mph /  6.4km/h 4mph /  6.4km/h 47% 0in /  0.0mm 204 W/m2
11:40 64.8 °F /  18.2 °C 44.6 °F /  7 °C 30.1in /  1019.0hPa NE 4mph /  6.4km/h 8mph /  12.9km/h 48% 0in /  0.0mm 178 W/m2
11:45 64.4 °F /  18 °C 44.2 °F /  6.8 °C 30.1in /  1019.0hPa NW 0.9mph /  1.4km/h 6mph /  9.7km/h 48% 0in /  0.0mm 214 W/m2
11:50 64.9 °F /  18.3 °C 45.3 °F /  7.4 °C 30.1in /  1019.0hPa NW 2mph /  3.2km/h 8mph /  12.9km/h 49% 0in /  0.0mm 874 W/m2
11:55 66.7 °F /  19.3 °C 45.9 °F /  7.7 °C 30.1in /  1019.0hPa NE 4mph /  6.4km/h 9mph /  14.5km/h 47% 0in /  0.0mm 918 W/m2
12:00 67.5 °F /  19.7 °C 44.8 °F /  7.1 °C 30.1in /  1019.0hPa SE 2.9mph /  4.7km/h 7mph /  11.3km/h 44% 0in /  0.0mm 895 W/m2
12:05 67.6 °F /  19.8 °C 45.5 °F /  7.5 °C 30.1in /  1019.0hPa ENE 6.9mph /  11.1km/h 11mph /  17.7km/h 45% 0in /  0.0mm 944 W/m2
12:10 68 °F /  20 °C 44.6 °F /  7 °C 30.1in /  1019.0hPa SE 6.9mph /  11.1km/h 10mph /  16.1km/h 43% 0in /  0.0mm 944 W/m2
12:15 68.2 °F /  20.1 °C 45.5 °F /  7.5 °C 30.1in /  1019.0hPa WNW 6mph /  9.7km/h 7mph /  11.3km/h 44% 0in /  0.0mm 991 W/m2
12:20 68.5 °F /  20.3 °C 43.9 °F /  6.6 °C 30.1in /  1018.6hPa NE 6mph /  9.7km/h 13mph /  20.9km/h 41% 0in /  0.0mm 969 W/m2
12:26 68.5 °F /  20.3 °C 45.1 °F /  7.3 °C 30.1in /  1018.6hPa NNE 8.1mph /  13km/h 9mph /  14.5km/h 43% 0in /  0.0mm 981 W/m2
12:31 68.5 °F /  20.3 °C 44.6 °F /  7 °C 30.1in /  1018.6hPa ESE 2.9mph /  4.7km/h 6mph /  9.7km/h 42% 0in /  0.0mm 981 W/m2
12:36 68.5 °F /  20.3 °C 43.9 °F /  6.6 °C 30.1in /  1018.6hPa NNE 0.9mph /  1.4km/h 8mph /  12.9km/h 41% 0in /  0.0mm 1049 W/m2
12:41 68.4 °F /  20.2 °C 45.7 °F /  7.6 °C 30.1in /  1018.6hPa NE 4.9mph /  7.9km/h 11mph /  17.7km/h 44% 0in /  0.0mm 1018 W/m2
12:46 67.8 °F /  19.9 °C 45.1 °F /  7.3 °C 30.1in /  1018.6hPa SE 2mph /  3.2km/h 6mph /  9.7km/h 44% 0in /  0.0mm 1037 W/m2
12:51 68 °F /  20 °C 44.1 °F /  6.7 °C 30.1in /  1019.0hPa SE 2.9mph /  4.7km/h 9mph /  14.5km/h 42% 0in /  0.0mm 318 W/m2
12:56 67.5 °F /  19.7 °C 44.2 °F /  6.8 °C 30.1in /  1018.6hPa ESE 4mph /  6.4km/h 7mph /  11.3km/h 43% 0in /  0.0mm 371 W/m2
13:01 67.3 °F /  19.6 °C 44.1 °F /  6.7 °C 30.1in /  1018.6hPa ENE 2.9mph /  4.7km/h 8mph /  12.9km/h 43% 0in /  0.0mm 1125 W/m2
13:06 67.5 °F /  19.7 °C 44.2 °F /  6.8 °C 30.1in /  1018.6hPa SE 4.9mph /  7.9km/h 5mph /  8km/h 43% 0in /  0.0mm 281 W/m2
13:11 67.5 °F /  19.7 °C 44.2 °F /  6.8 °C 30.1in /  1018.6hPa NW 4.9mph /  7.9km/h 5mph /  8km/h 43% 0in /  0.0mm 241 W/m2
13:16 67.5 °F /  19.7 °C 44.8 °F /  7.1 °C 30.1in /  1018.6hPa ENE 12.1mph /  19.5km/h 12mph /  19.3km/h 44% 0in /  0.0mm 1056 W/m2
13:21 67.5 °F /  19.7 °C 44.2 °F /  6.8 °C 30.1in /  1018.6hPa ENE 6mph /  9.7km/h 8mph /  12.9km/h 43% 0in /  0.0mm 1041 W/m2
13:26 67.5 °F /  19.7 °C 45.3 °F /  7.4 °C 30.1in /  1018.6hPa SE 4.9mph /  7.9km/h 7mph /  11.3km/h 45% 0in /  0.0mm 1005 W/m2
13:31 68 °F /  20 °C 44.6 °F /  7 °C 30.1in /  1018.6hPa East 4.9mph /  7.9km/h 9mph /  14.5km/h 43% 0in /  0.0mm 1067 W/m2
13:36 68 °F /  20 °C 44.6 °F /  7 °C 30.1in /  1018.6hPa ESE 6.9mph /  11.1km/h 9mph /  14.5km/h 43% 0in /  0.0mm 265 W/m2
13:41 67.8 °F /  19.9 °C 44.4 °F /  6.9 °C 30.1in /  1018.6hPa WNW 4.9mph /  7.9km/h 6mph /  9.7km/h 43% 0in /  0.0mm 251 W/m2
13:46 67.8 °F /  19.9 °C 43.9 °F /  6.6 °C 30.1in /  1018.6hPa NW 2mph /  3.2km/h 8mph /  12.9km/h 42% 0in /  0.0mm 325 W/m2
13:51 66.9 °F /  19.4 °C 43.7 °F /  6.5 °C 30.1in /  1018.3hPa ENE 2mph /  3.2km/h 5mph /  8km/h 43% 0in /  0.0mm 295 W/m2
13:56 66.9 °F /  19.4 °C 45.5 °F /  7.5 °C 30.1in /  1018.3hPa SE 2.9mph /  4.7km/h 3mph /  4.8km/h 46% 0in /  0.0mm 258 W/m2
14:01 67.5 °F /  19.7 °C 44.2 °F /  6.8 °C 30.1in /  1018.3hPa ENE 4.9mph /  7.9km/h 11mph /  17.7km/h 43% 0in /  0.0mm 288 W/m2
14:06 67.5 °F /  19.7 °C 44.2 °F /  6.8 °C 30.1in /  1018.3hPa Calm   4mph /  6.4km/h 43% 0in /  0.0mm 295 W/m2
14:11 67.5 °F /  19.7 °C 44.8 °F /  7.1 °C 30.1in /  1018.3hPa ESE 4mph /  6.4km/h 7mph /  11.3km/h 44% 0in /  0.0mm 311 W/m2
14:17 67.3 °F /  19.6 °C 44.1 °F /  6.7 °C 30.1in /  1018.3hPa NNW 4.9mph /  7.9km/h 8mph /  12.9km/h 43% 0in /  0.0mm 237 W/m2
14:22 68 °F /  20 °C 45.3 °F /  7.4 °C 30.1in /  1018.3hPa NE 0.9mph /  1.4km/h 6mph /  9.7km/h 44% 0in /  0.0mm 1093 W/m2
14:27 68.7 °F /  20.4 °C 44.8 °F /  7.1 °C 30.1in /  1018.3hPa NW 4mph /  6.4km/h 8mph /  12.9km/h 42% 0in /  0.0mm 1067 W/m2
14:32 69.4 °F /  20.8 °C 44.8 °F /  7.1 °C 30.1in /  1018.3hPa NW 4.9mph /  7.9km/h 12mph /  19.3km/h 41% 0in /  0.0mm 1039 W/m2
14:37 70.2 °F /  21.2 °C 45.3 °F /  7.4 °C 30.1in /  1018.3hPa East 4mph /  6.4km/h 7mph /  11.3km/h 41% 0in /  0.0mm 1083 W/m2
14:42 70 °F /  21.1 °C 44.6 °F /  7 °C 30.1in /  1018.3hPa ENE 4mph /  6.4km/h 12mph /  19.3km/h 40% 0in /  0.0mm 1127 W/m2
14:47 69.6 °F /  20.9 °C 43.5 °F /  6.4 °C 30.1in /  1018.0hPa ENE 6.9mph /  11.1km/h 9mph /  14.5km/h 39% 0in /  0.0mm 193 W/m2
14:52 69.6 °F /  20.9 °C 44.2 °F /  6.8 °C 30.1in /  1018.0hPa East 2mph /  3.2km/h 11mph /  17.7km/h 40% 0in /  0.0mm 956 W/m2
14:57 70.2 °F /  21.2 °C 46 °F /  7.8 °C 30.1in /  1018.0hPa ENE 2.9mph /  4.7km/h 5mph /  8km/h 42% 0in /  0.0mm 988 W/m2
15:02 70.9 °F /  21.6 °C 44.8 °F /  7.1 °C 30.1in /  1018.0hPa NE 0.9mph /  1.4km/h 7mph /  11.3km/h 39% 0in /  0.0mm 1085 W/m2
15:07 70.9 °F /  21.6 °C 45.3 °F /  7.4 °C 30.1in /  1018.0hPa NE 2.9mph /  4.7km/h 5mph /  8km/h 40% 0in /  0.0mm 323 W/m2
15:12 71.2 °F /  21.8 °C 45 °F /  7.2 °C 30.1in /  1018.0hPa East 2mph /  3.2km/h 7mph /  11.3km/h 39% 0in /  0.0mm 563 W/m2
15:17 71.2 °F /  21.8 °C 44.2 °F /  6.8 °C 30.1in /  1018.0hPa East 0.9mph /  1.4km/h 5mph /  8km/h 38% 0in /  0.0mm 947 W/m2
15:22 71.2 °F /  21.8 °C 44.2 °F /  6.8 °C 30.1in /  1018.0hPa NE 4.9mph /  7.9km/h 9mph /  14.5km/h 38% 0in /  0.0mm 868 W/m2
15:27 71.2 °F /  21.8 °C 44.2 °F /  6.8 °C 30.1in /  1018.0hPa East 8.9mph /  14.3km/h 9mph /  14.5km/h 38% 0in /  0.0mm 867 W/m2
15:32 71.1 °F /  21.7 °C 44.2 °F /  6.8 °C 30.1in /  1018.0hPa ESE 2.9mph /  4.7km/h 6mph /  9.7km/h 38% 0in /  0.0mm 856 W/m2
15:37 71.4 °F /  21.9 °C 44.4 °F /  6.9 °C 30.1in /  1018.0hPa ESE 2mph /  3.2km/h 7mph /  11.3km/h 38% 0in /  0.0mm 830 W/m2
15:42 71.8 °F /  22.1 °C 43.3 °F /  6.3 °C 30.1in /  1018.0hPa ENE 4mph /  6.4km/h 10mph /  16.1km/h 36% 0in /  0.0mm 826 W/m2
15:47 71.4 °F /  21.9 °C 43.7 °F /  6.5 °C 30.1in /  1018.0hPa ENE 2mph /  3.2km/h 5mph /  8km/h 37% 0in /  0.0mm 807 W/m2
15:52 71.8 °F /  22.1 °C 44.8 °F /  7.1 °C 30.1in /  1018.0hPa NE 2mph /  3.2km/h 10mph /  16.1km/h 38% 0in /  0.0mm 795 W/m2
15:57 72.1 °F /  22.3 °C 43.7 °F /  6.5 °C 30.1in /  1018.0hPa North 2mph /  3.2km/h 11mph /  17.7km/h 36% 0in /  0.0mm 798 W/m2
16:02 72.1 °F /  22.3 °C 45.1 °F /  7.3 °C 30.1in /  1018.0hPa NE 4mph /  6.4km/h 6mph /  9.7km/h 38% 0in /  0.0mm 786 W/m2
16:07 71.8 °F /  22.1 °C 43.3 °F /  6.3 °C 30.1in /  1018.0hPa SE 4mph /  6.4km/h 8mph /  12.9km/h 36% 0in /  0.0mm 830 W/m2
16:12 71.8 °F /  22.1 °C 43.3 °F /  6.3 °C 30.1in /  1018.0hPa ENE 6mph /  9.7km/h 9mph /  14.5km/h 36% 0in /  0.0mm 761 W/m2
16:17 72 °F /  22.2 °C 44.2 °F /  6.8 °C 30.1in /  1018.0hPa SE 2.9mph /  4.7km/h 5mph /  8km/h 37% 0in /  0.0mm 751 W/m2
16:22 72.1 °F /  22.3 °C 43.7 °F /  6.5 °C 30.1in /  1018.0hPa South 4.9mph /  7.9km/h 8mph /  12.9km/h 36% 0in /  0.0mm 744 W/m2
16:27 72.1 °F /  22.3 °C 43 °F /  6.1 °C 30.1in /  1018.0hPa East 4mph /  6.4km/h 8mph /  12.9km/h 35% 0in /  0.0mm 726 W/m2
16:32 72.3 °F /  22.4 °C 43.2 °F /  6.2 °C 30.1in /  1017.6hPa North 2.9mph /  4.7km/h 7mph /  11.3km/h 35% 0in /  0.0mm 719 W/m2
16:37 72.7 °F /  22.6 °C 45 °F /  7.2 °C 30.1in /  1017.6hPa ESE 2.9mph /  4.7km/h 4mph /  6.4km/h 37% 0in /  0.0mm 708 W/m2
16:42 72.3 °F /  22.4 °C 43.2 °F /  6.2 °C 30.1in /  1018.0hPa NE 4.9mph /  7.9km/h 8mph /  12.9km/h 35% 0in /  0.0mm 701 W/m2
16:47 72.1 °F /  22.3 °C 43.7 °F /  6.5 °C 30.1in /  1017.6hPa South 0.9mph /  1.4km/h 4mph /  6.4km/h 36% 0in /  0.0mm 687 W/m2
16:52 72.3 °F /  22.4 °C 44.6 °F /  7 °C 30.1in /  1017.6hPa NE 2.9mph /  4.7km/h 7mph /  11.3km/h 37% 0in /  0.0mm 684 W/m2
16:57 72.9 °F /  22.7 °C 45.1 °F /  7.3 °C 30.1in /  1017.6hPa ESE 2.9mph /  4.7km/h 5mph /  8km/h 37% 0in /  0.0mm 680 W/m2
17:02 72.9 °F /  22.7 °C 44.4 °F /  6.9 °C 30.1in /  1017.6hPa ENE 4mph /  6.4km/h 6mph /  9.7km/h 36% 0in /  0.0mm 679 W/m2
17:07 72.3 °F /  22.4 °C 43.9 °F /  6.6 °C 30.1in /  1017.6hPa ESE 2mph /  3.2km/h 7mph /  11.3km/h 36% 0in /  0.0mm 645 W/m2
17:12 72.7 °F /  22.6 °C 45 °F /  7.2 °C 30.1in /  1017.6hPa ESE 4mph /  6.4km/h 6mph /  9.7km/h 37% 0in /  0.0mm 643 W/m2
17:17 72.3 °F /  22.4 °C 43.2 °F /  6.2 °C 30.1in /  1017.6hPa East 4mph /  6.4km/h 7mph /  11.3km/h 35% 0in /  0.0mm 631 W/m2
17:22 72.1 °F /  22.3 °C 44.4 °F /  6.9 °C 30.1in /  1017.6hPa NE 4mph /  6.4km/h 12mph /  19.3km/h 37% 0in /  0.0mm 615 W/m2
17:27 72.1 °F /  22.3 °C 43.7 °F /  6.5 °C 30.1in /  1017.6hPa ENE 4mph /  6.4km/h 11mph /  17.7km/h 36% 0in /  0.0mm 610 W/m2
17:32 72.5 °F /  22.5 °C 44.8 °F /  7.1 °C 30.1in /  1017.6hPa SE 4mph /  6.4km/h 12mph /  19.3km/h 37% 0in /  0.0mm 599 W/m2
17:37 72.7 °F /  22.6 °C 45 °F /  7.2 °C 30.1in /  1017.6hPa NE 2.9mph /  4.7km/h 7mph /  11.3km/h 37% 0in /  0.0mm 592 W/m2
17:42 72.7 °F /  22.6 °C 44.2 °F /  6.8 °C 30.1in /  1018.0hPa East 2.9mph /  4.7km/h 10mph /  16.1km/h 36% 0in /  0.0mm 594 W/m2
17:47 72.3 °F /  22.4 °C 44.6 °F /  7 °C 30.1in /  1018.0hPa ESE 2.9mph /  4.7km/h 13mph /  20.9km/h 37% 0in /  0.0mm 603 W/m2
17:52 72.3 °F /  22.4 °C 44.6 °F /  7 °C 30.1in /  1017.6hPa ENE 2.9mph /  4.7km/h 8mph /  12.9km/h 37% 0in /  0.0mm 610 W/m2
17:57 72.7 °F /  22.6 °C 44.2 °F /  6.8 °C 30.1in /  1017.6hPa ESE 0.9mph /  1.4km/h 13mph /  20.9km/h 36% 0in /  0.0mm 610 W/m2
18:02 73.2 °F /  22.9 °C 44.6 °F /  7 °C 30.1in /  1017.6hPa SE 8.9mph /  14.3km/h 9mph /  14.5km/h 36% 0in /  0.0mm 599 W/m2
18:07 73.4 °F /  23 °C 44.8 °F /  7.1 °C 30.1in /  1017.6hPa ENE 4mph /  6.4km/h 8mph /  12.9km/h 36% 0in /  0.0mm 536 W/m2
18:12 72.7 °F /  22.6 °C 44.2 °F /  6.8 °C 30.1in /  1017.6hPa ENE 9mph /  14.5km/h 9mph /  14.5km/h 36% 0in /  0.0mm 390 W/m2
18:17 72.7 °F /  22.6 °C 45 °F /  7.2 °C 30.1in /  1017.6hPa East 0.9mph /  1.4km/h 3mph /  4.8km/h 37% 0in /  0.0mm 445 W/m2
18:22 72.3 °F /  22.4 °C 44.6 °F /  7 °C 30.1in /  1017.6hPa ENE 10.1mph /  16.3km/h 10mph /  16.1km/h 37% 0in /  0.0mm 424 W/m2
18:27 72 °F /  22.2 °C 45 °F /  7.2 °C 30.1in /  1017.6hPa ENE 4mph /  6.4km/h 13mph /  20.9km/h 38% 0in /  0.0mm 352 W/m2
18:32 71.4 °F /  21.9 °C 43.7 °F /  6.5 °C 30.1in /  1017.6hPa NE 0.9mph /  1.4km/h 10mph /  16.1km/h 37% 0in /  0.0mm 341 W/m2
18:38 71.4 °F /  21.9 °C 43.7 °F /  6.5 °C 30.1in /  1017.6hPa ENE 4mph /  6.4km/h 13mph /  20.9km/h 37% 0in /  0.0mm 399 W/m2
18:43 71.4 °F /  21.9 °C 43.7 °F /  6.5 °C 30.1in /  1017.6hPa SSE 6.9mph /  11.1km/h 7mph /  11.3km/h 37% 0in /  0.0mm 381 W/m2
18:48 71.6 °F /  22 °C 44.6 °F /  7 °C 30.1in /  1017.6hPa Calm   11mph /  17.7km/h 38% 0in /  0.0mm 380 W/m2
18:53 72 °F /  22.2 °C 45 °F /  7.2 °C 30.1in /  1017.6hPa ESE 6.9mph /  11.1km/h 12mph /  19.3km/h 38% 0in /  0.0mm 353 W/m2
18:58 72 °F /  22.2 °C 45.7 °F /  7.6 °C 30.1in /  1017.6hPa NNE 4mph /  6.4km/h 4mph /  6.4km/h 39% 0in /  0.0mm 279 W/m2
19:03 71.2 °F /  21.8 °C 45 °F /  7.2 °C 30.1in /  1017.6hPa East 4mph /  6.4km/h 12mph /  19.3km/h 39% 0in /  0.0mm 216 W/m2
19:08 70.5 °F /  21.4 °C 44.4 °F /  6.9 °C 30.1in /  1017.6hPa ENE 4.9mph /  7.9km/h 8mph /  12.9km/h 39% 0in /  0.0mm 192 W/m2
19:13 70 °F /  21.1 °C 44.6 °F /  7 °C 30.1in /  1017.6hPa ENE 8.9mph /  14.3km/h 12mph /  19.3km/h 40% 0in /  0.0mm 213 W/m2
19:18 69.6 °F /  20.9 °C 44.2 °F /  6.8 °C 30.1in /  1017.6hPa SE 2mph /  3.2km/h 9mph /  14.5km/h 40% 0in /  0.0mm 188 W/m2
19:23 69.4 °F /  20.8 °C 44.1 °F /  6.7 °C 30.1in /  1017.6hPa ENE 4mph /  6.4km/h 9mph /  14.5km/h 40% 0in /  0.0mm 156 W/m2
19:28 69.1 °F /  20.6 °C 44.4 °F /  6.9 °C 30.1in /  1017.6hPa East 2mph /  3.2km/h 10mph /  16.1km/h 41% 0in /  0.0mm 165 W/m2
19:33 69.3 °F /  20.7 °C 44.6 °F /  7 °C 30.1in /  1017.6hPa NNE 4.9mph /  7.9km/h 8mph /  12.9km/h 41% 0in /  0.0mm 225 W/m2
19:38 69.6 °F /  20.9 °C 45 °F /  7.2 °C 30.1in /  1017.6hPa SSE 2mph /  3.2km/h 6mph /  9.7km/h 41% 0in /  0.0mm 213 W/m2
19:43 70 °F /  21.1 °C 45.1 °F /  7.3 °C 30.1in /  1017.6hPa SE 2mph /  3.2km/h 7mph /  11.3km/h 41% 0in /  0.0mm 165 W/m2
19:48 70 °F /  21.1 °C 44.6 °F /  7 °C 30.1in /  1017.6hPa ESE 2.9mph /  4.7km/h 6mph /  9.7km/h 40% 0in /  0.0mm 148 W/m2
19:53 69.8 °F /  21 °C 44.4 °F /  6.9 °C 30.1in /  1017.6hPa ESE 0.9mph /  1.4km/h 8mph /  12.9km/h 40% 0in /  0.0mm 128 W/m2
19:58 69.6 °F /  20.9 °C 45 °F /  7.2 °C 30.1in /  1017.6hPa ENE 2.9mph /  4.7km/h 5mph /  8km/h 41% 0in /  0.0mm 148 W/m2
20:03 70 °F /  21.1 °C 45.1 °F /  7.3 °C 30.1in /  1017.6hPa ENE 2.9mph /  4.7km/h 4mph /  6.4km/h 41% 0in /  0.0mm 141 W/m2
20:08 69.6 °F /  20.9 °C 45 °F /  7.2 °C 30.1in /  1018.0hPa ENE 4.9mph /  7.9km/h 5mph /  8km/h 41% 0in /  0.0mm 130 W/m2
20:13 69.4 °F /  20.8 °C 45.3 °F /  7.4 °C 30.1in /  1018.0hPa Calm   1mph /  1.6km/h 42% 0in /  0.0mm 118 W/m2
20:18 69.6 °F /  20.9 °C 45.5 °F /  7.5 °C 30.1in /  1018.0hPa Calm   3mph /  4.8km/h 42% 0in /  0.0mm 105 W/m2
20:23 69.6 °F /  20.9 °C 45.5 °F /  7.5 °C 30.1in /  1018.0hPa NE 0.9mph /  1.4km/h 1mph /  1.6km/h 42% 0in /  0.0mm 95 W/m2
20:28 69.4 °F /  20.8 °C 44.8 °F /  7.1 °C 30.1in /  1018.0hPa East 2mph /  3.2km/h 4mph /  6.4km/h 41% 0in /  0.0mm 83 W/m2
20:33 69.3 °F /  20.7 °C 45.9 °F /  7.7 °C 30.1in /  1018.0hPa SE 0.9mph /  1.4km/h 2mph /  3.2km/h 43% 0in /  0.0mm 69 W/m2
20:38 69.1 °F /  20.6 °C 45.7 °F /  7.6 °C 30.1in /  1018.0hPa NE 2.9mph /  4.7km/h 9mph /  14.5km/h 43% 0in /  0.0mm 56 W/m2
20:43 68.5 °F /  20.3 °C 45.7 °F /  7.6 °C 30.1in /  1018.0hPa NE 2.9mph /  4.7km/h 5mph /  8km/h 44% 0in /  0.0mm 54 W/m2
20:48 68.2 °F /  20.1 °C 45.5 °F /  7.5 °C 30.1in /  1018.0hPa NE 2.9mph /  4.7km/h 4mph /  6.4km/h 44% 0in /  0.0mm 44 W/m2
20:53 67.8 °F /  19.9 °C 45.1 °F /  7.3 °C 30.1in /  1018.0hPa SE 2.9mph /  4.7km/h 5mph /  8km/h 44% 0in /  0.0mm 40 W/m2
20:58 67.6 °F /  19.8 °C 45.5 °F /  7.5 °C 30.1in /  1018.0hPa NE 0.9mph /  1.4km/h 4mph /  6.4km/h 45% 0in /  0.0mm 33 W/m2
21:03 67.3 °F /  19.6 °C 45.1 °F /  7.3 °C 30.1in /  1018.3hPa East 2.9mph /  4.7km/h 4mph /  6.4km/h 45% 0in /  0.0mm 23 W/m2
21:09 66.7 °F /  19.3 °C 45.3 °F /  7.4 °C 30.1in /  1018.3hPa ENE 6mph /  9.7km/h 6mph /  9.7km/h 46% 0in /  0.0mm 18 W/m2
21:14 66.4 °F /  19.1 °C 45 °F /  7.2 °C 30.1in /  1018.3hPa ENE 0.9mph /  1.4km/h 2mph /  3.2km/h 46% 0in /  0.0mm 12 W/m2
21:19 66 °F /  18.9 °C 45.7 °F /  7.6 °C 30.1in /  1018.3hPa East 2mph /  3.2km/h 3mph /  4.8km/h 48% 0in /  0.0mm 9 W/m2
21:24 65.7 °F /  18.7 °C 45.5 °F /  7.5 °C 30.1in /  1018.3hPa NNE 4mph /  6.4km/h 5mph /  8km/h 48% 0in /  0.0mm 7 W/m2
21:29 65.5 °F /  18.6 °C 45.3 °F /  7.4 °C 30.1in /  1018.3hPa Calm   2mph /  3.2km/h 48% 0in /  0.0mm 5 W/m2
21:34 65.3 °F /  18.5 °C 45.1 °F /  7.3 °C 30.1in /  1018.3hPa ENE 2mph /  3.2km/h 4mph /  6.4km/h 48% 0in /  0.0mm 0 W/m2
21:39 64.9 °F /  18.3 °C 44.8 °F /  7.1 °C 30.1in /  1018.3hPa ENE 2mph /  3.2km/h 3mph /  4.8km/h 48% 0in /  0.0mm 0 W/m2
21:44 64.8 °F /  18.2 °C 45.1 °F /  7.3 °C 30.1in /  1018.3hPa East 6mph /  9.7km/h 6mph /  9.7km/h 49% 0in /  0.0mm 0 W/m2
21:49 64.6 °F /  18.1 °C 45.5 °F /  7.5 °C 30.1in /  1018.3hPa ENE 2mph /  3.2km/h 5mph /  8km/h 50% 0in /  0.0mm 0 W/m2
21:54 64.2 °F /  17.9 °C 45.1 °F /  7.3 °C 30.1in /  1018.3hPa Calm   2mph /  3.2km/h 50% 0in /  0.0mm 0 W/m2
21:59 64 °F /  17.8 °C 45 °F /  7.2 °C 30.1in /  1018.3hPa Calm   5mph /  8km/h 50% 0in /  0.0mm 0 W/m2
22:04 63.7 °F /  17.6 °C 45.1 °F /  7.3 °C 30.1in /  1018.6hPa Calm   2mph /  3.2km/h 51% 0in /  0.0mm 0 W/m2
22:09 63.3 °F /  17.4 °C 45 °F /  7.2 °C 30.1in /  1018.6hPa ESE 2mph /  3.2km/h 4mph /  6.4km/h 51% 0in /  0.0mm 0 W/m2
22:14 63.1 °F /  17.3 °C 45.1 °F /  7.3 °C 30.1in /  1018.6hPa SE 2mph /  3.2km/h 2mph /  3.2km/h 52% 0in /  0.0mm 0 W/m2
22:19 63 °F /  17.2 °C 45.5 °F /  7.5 °C 30.1in /  1018.6hPa SE 0.9mph /  1.4km/h 2mph /  3.2km/h 53% 0in /  0.0mm 0 W/m2
22:24 62.6 °F /  17 °C 45.1 °F /  7.3 °C 30.1in /  1018.6hPa ESE 0.9mph /  1.4km/h 2mph /  3.2km/h 53% 0in /  0.0mm 0 W/m2
22:29 62.2 °F /  16.8 °C 45 °F /  7.2 °C 30.1in /  1018.6hPa ESE 0.9mph /  1.4km/h 3mph /  4.8km/h 53% 0in /  0.0mm 0 W/m2
22:34 62.1 °F /  16.7 °C 45.1 °F /  7.3 °C 30.1in /  1018.6hPa Calm     54% 0in /  0.0mm 0 W/m2
22:39 61.9 °F /  16.6 °C 45.5 °F /  7.5 °C 30.1in /  1018.6hPa Calm   1mph /  1.6km/h 55% 0in /  0.0mm 0 W/m2
22:44 61.5 °F /  16.4 °C 45.7 °F /  7.6 °C 30.1in /  1018.6hPa ESE 0.9mph /  1.4km/h 1mph /  1.6km/h 56% 0in /  0.0mm 0 W/m2
22:49 61.2 °F /  16.2 °C 45.9 °F /  7.7 °C 30.1in /  1018.6hPa ESE 0.9mph /  1.4km/h 1mph /  1.6km/h 57% 0in /  0.0mm 0 W/m2
22:54 61 °F /  16.1 °C 46 °F /  7.8 °C 30.1in /  1018.6hPa ESE 0.9mph /  1.4km/h 1mph /  1.6km/h 58% 0in /  0.0mm 0 W/m2
22:59 60.6 °F /  15.9 °C 46.2 °F /  7.9 °C 30.1in /  1018.6hPa SE 2mph /  3.2km/h 2mph /  3.2km/h 59% 0in /  0.0mm 0 W/m2
23:04 60.4 °F /  15.8 °C 46.4 °F /  8 °C 30.1in /  1019.0hPa Calm     60% 0in /  0.0mm 0 W/m2
23:09 60.1 °F /  15.6 °C 46.2 °F /  7.9 °C 30.1in /  1019.0hPa SSE 0.9mph /  1.4km/h 1mph /  1.6km/h 60% 0in /  0.0mm 0 W/m2
23:14 59.9 °F /  15.5 °C 46 °F /  7.8 °C 30.1in /  1019.0hPa Calm   1mph /  1.6km/h 60% 0in /  0.0mm 0 W/m2
23:19 59.7 °F /  15.4 °C 45.9 °F /  7.7 °C 30.1in /  1019.0hPa SE 0.9mph /  1.4km/h 2mph /  3.2km/h 60% 0in /  0.0mm 0 W/m2
23:24 59.5 °F /  15.3 °C 45.7 °F /  7.6 °C 30.1in /  1019.0hPa Calm   3mph /  4.8km/h 60% 0in /  0.0mm 0 W/m2
23:29 59.7 °F /  15.4 °C 46.2 °F /  7.9 °C 30.1in /  1019.0hPa SE 2mph /  3.2km/h 2mph /  3.2km/h 61% 0in /  0.0mm 0 W/m2
23:34 59.9 °F /  15.5 °C 46 °F /  7.8 °C 30.1in /  1019.0hPa Calm   3mph /  4.8km/h 60% 0in /  0.0mm 0 W/m2
23:39 60.1 °F /  15.6 °C 46.2 °F /  7.9 °C 30.1in /  1019.0hPa SE 0.9mph /  1.4km/h 6mph /  9.7km/h 60% 0in /  0.0mm 0 W/m2
23:44 60.1 °F /  15.6 °C 46.2 °F /  7.9 °C 30.1in /  1019.0hPa Calm   1mph /  1.6km/h 60% 0in /  0.0mm 0 W/m2
23:49 60.1 °F /  15.6 °C 46.2 °F /  7.9 °C 30.1in /  1019.0hPa SE 2mph /  3.2km/h 3mph /  4.8km/h 60% 0in /  0.0mm 0 W/m2
23:54 59.7 °F /  15.4 °C 46.2 °F /  7.9 °C 30.1in /  1019.0hPa ESE 0.9mph /  1.4km/h 2mph /  3.2km/h 61% 0in /  0.0mm 0 W/m2
23:59 59.5 °F /  15.3 °C 45.7 °F /  7.6 °C 30.1in /  1019.0hPa ESE 0.9mph /  1.4km/h 3mph /  4.8km/h 60% 0in /  0.0mm 0 W/m2
Juneau County Weather
Compliments of Weather Underground - 4 mb